sensor_id;sensor_type;location;lat;lon;timestamp;P1;durP1;ratioP1;P2;durP2;ratioP2
51384;SDS011;37478;55.682;37.462;2023-07-09T00:02:00;17.92;;;9.20;;
51384;SDS011;37478;55.682;37.462;2023-07-09T00:04:26;21.35;;;9.10;;
51384;SDS011;37478;55.682;37.462;2023-07-09T00:06:53;16.00;;;8.65;;
51384;SDS011;37478;55.682;37.462;2023-07-09T00:09:20;19.98;;;8.98;;
51384;SDS011;37478;55.682;37.462;2023-07-09T00:11:45;20.00;;;10.32;;
51384;SDS011;37478;55.682;37.462;2023-07-09T00:14:11;22.02;;;10.43;;
51384;SDS011;37478;55.682;37.462;2023-07-09T00:16:38;20.52;;;11.35;;
51384;SDS011;37478;55.682;37.462;2023-07-09T00:19:13;21.20;;;11.05;;
51384;SDS011;37478;55.682;37.462;2023-07-09T00:21:41;25.52;;;11.27;;
51384;SDS011;37478;55.682;37.462;2023-07-09T00:24:07;21.95;;;10.85;;
51384;SDS011;37478;55.682;37.462;2023-07-09T00:26:32;20.63;;;10.90;;
51384;SDS011;37478;55.682;37.462;2023-07-09T00:29:01;23.25;;;12.02;;
51384;SDS011;37478;55.682;37.462;2023-07-09T00:31:26;18.65;;;10.18;;
51384;SDS011;37478;55.682;37.462;2023-07-09T00:33:52;22.05;;;11.20;;
51384;SDS011;37478;55.682;37.462;2023-07-09T00:36:28;21.27;;;9.90;;
51384;SDS011;37478;55.682;37.462;2023-07-09T00:38:54;17.27;;;10.68;;
51384;SDS011;37478;55.682;37.462;2023-07-09T00:41:20;19.58;;;11.23;;
51384;SDS011;37478;55.682;37.462;2023-07-09T00:43:46;15.50;;;10.18;;
51384;SDS011;37478;55.682;37.462;2023-07-09T00:48:50;21.20;;;11.02;;
51384;SDS011;37478;55.682;37.462;2023-07-09T00:51:18;18.35;;;10.52;;
51384;SDS011;37478;55.682;37.462;2023-07-09T00:53:46;20.05;;;10.95;;
51384;SDS011;37478;55.682;37.462;2023-07-09T00:56:12;23.02;;;10.98;;
51384;SDS011;37478;55.682;37.462;2023-07-09T00:58:39;18.45;;;10.80;;
51384;SDS011;37478;55.682;37.462;2023-07-09T01:01:09;21.40;;;11.45;;
51384;SDS011;37478;55.682;37.462;2023-07-09T01:03:58;29.45;;;13.02;;
51384;SDS011;37478;55.682;37.462;2023-07-09T01:06:27;19.17;;;10.52;;
51384;SDS011;37478;55.682;37.462;2023-07-09T01:08:57;20.13;;;12.10;;
51384;SDS011;37478;55.682;37.462;2023-07-09T01:11:24;23.05;;;12.55;;
51384;SDS011;37478;55.682;37.462;2023-07-09T01:13:49;17.25;;;9.82;;
51384;SDS011;37478;55.682;37.462;2023-07-09T01:16:16;16.60;;;10.48;;
51384;SDS011;37478;55.682;37.462;2023-07-09T01:18:42;21.50;;;11.02;;
51384;SDS011;37478;55.682;37.462;2023-07-09T01:21:09;22.48;;;10.38;;
51384;SDS011;37478;55.682;37.462;2023-07-09T01:23:40;21.13;;;11.13;;
51384;SDS011;37478;55.682;37.462;2023-07-09T01:26:09;20.90;;;10.75;;
51384;SDS011;37478;55.682;37.462;2023-07-09T01:28:36;15.20;;;10.23;;
51384;SDS011;37478;55.682;37.462;2023-07-09T01:31:01;22.45;;;11.27;;
51384;SDS011;37478;55.682;37.462;2023-07-09T01:33:29;20.55;;;10.45;;
51384;SDS011;37478;55.682;37.462;2023-07-09T01:35:54;17.42;;;9.20;;
51384;SDS011;37478;55.682;37.462;2023-07-09T01:38:25;18.55;;;10.10;;
51384;SDS011;37478;55.682;37.462;2023-07-09T01:40:55;17.95;;;9.52;;
51384;SDS011;37478;55.682;37.462;2023-07-09T01:43:20;16.58;;;9.38;;
51384;SDS011;37478;55.682;37.462;2023-07-09T01:45:46;15.18;;;8.95;;
51384;SDS011;37478;55.682;37.462;2023-07-09T01:48:15;17.55;;;9.57;;
51384;SDS011;37478;55.682;37.462;2023-07-09T01:50:40;16.40;;;9.48;;
51384;SDS011;37478;55.682;37.462;2023-07-09T01:53:08;20.33;;;10.90;;
51384;SDS011;37478;55.682;37.462;2023-07-09T01:55:33;17.63;;;10.85;;
51384;SDS011;37478;55.682;37.462;2023-07-09T01:57:59;21.38;;;11.35;;
51384;SDS011;37478;55.682;37.462;2023-07-09T02:00:24;19.10;;;10.85;;
51384;SDS011;37478;55.682;37.462;2023-07-09T02:02:49;17.23;;;9.88;;
51384;SDS011;37478;55.682;37.462;2023-07-09T02:05:16;26.13;;;12.35;;
51384;SDS011;37478;55.682;37.462;2023-07-09T02:07:42;17.85;;;10.98;;
51384;SDS011;37478;55.682;37.462;2023-07-09T02:10:07;26.48;;;12.00;;
51384;SDS011;37478;55.682;37.462;2023-07-09T02:12:33;22.38;;;11.70;;
51384;SDS011;37478;55.682;37.462;2023-07-09T02:14:58;21.33;;;11.23;;
51384;SDS011;37478;55.682;37.462;2023-07-09T02:17:23;26.95;;;12.32;;
51384;SDS011;37478;55.682;37.462;2023-07-09T02:19:49;17.98;;;11.50;;
51384;SDS011;37478;55.682;37.462;2023-07-09T02:22:14;20.73;;;12.25;;
51384;SDS011;37478;55.682;37.462;2023-07-09T02:24:39;19.50;;;11.55;;
51384;SDS011;37478;55.682;37.462;2023-07-09T02:27:05;20.65;;;11.25;;
51384;SDS011;37478;55.682;37.462;2023-07-09T02:29:31;23.17;;;12.32;;
51384;SDS011;37478;55.682;37.462;2023-07-09T02:31:57;29.05;;;12.32;;
51384;SDS011;37478;55.682;37.462;2023-07-09T02:34:26;16.23;;;11.07;;
51384;SDS011;37478;55.682;37.462;2023-07-09T02:36:52;24.00;;;10.98;;
51384;SDS011;37478;55.682;37.462;2023-07-09T02:39:18;23.52;;;11.77;;
51384;SDS011;37478;55.682;37.462;2023-07-09T02:41:43;19.38;;;12.38;;
51384;SDS011;37478;55.682;37.462;2023-07-09T02:44:08;19.58;;;11.68;;
51384;SDS011;37478;55.682;37.462;2023-07-09T02:46:34;18.65;;;11.35;;
51384;SDS011;37478;55.682;37.462;2023-07-09T02:49:00;18.98;;;11.40;;
51384;SDS011;37478;55.682;37.462;2023-07-09T02:51:25;22.23;;;11.65;;
51384;SDS011;37478;55.682;37.462;2023-07-09T02:53:53;19.88;;;11.50;;
51384;SDS011;37478;55.682;37.462;2023-07-09T02:56:18;22.38;;;12.35;;
51384;SDS011;37478;55.682;37.462;2023-07-09T02:58:43;23.90;;;12.10;;
51384;SDS011;37478;55.682;37.462;2023-07-09T03:01:09;21.23;;;11.77;;
51384;SDS011;37478;55.682;37.462;2023-07-09T03:03:34;20.52;;;11.88;;
51384;SDS011;37478;55.682;37.462;2023-07-09T03:06:00;23.70;;;12.25;;
51384;SDS011;37478;55.682;37.462;2023-07-09T03:08:25;22.75;;;11.77;;
51384;SDS011;37478;55.682;37.462;2023-07-09T03:10:50;23.00;;;11.98;;
51384;SDS011;37478;55.682;37.462;2023-07-09T03:13:15;19.45;;;11.98;;
51384;SDS011;37478;55.682;37.462;2023-07-09T03:15:41;24.25;;;11.85;;
51384;SDS011;37478;55.682;37.462;2023-07-09T03:18:06;17.88;;;12.13;;
51384;SDS011;37478;55.682;37.462;2023-07-09T03:20:31;15.07;;;10.68;;
51384;SDS011;37478;55.682;37.462;2023-07-09T03:22:57;19.67;;;11.20;;
51384;SDS011;37478;55.682;37.462;2023-07-09T03:25:22;22.45;;;11.95;;
51384;SDS011;37478;55.682;37.462;2023-07-09T03:27:48;18.77;;;10.80;;
51384;SDS011;37478;55.682;37.462;2023-07-09T03:30:13;21.77;;;12.93;;
51384;SDS011;37478;55.682;37.462;2023-07-09T03:32:38;17.45;;;11.15;;
51384;SDS011;37478;55.682;37.462;2023-07-09T03:35:04;21.70;;;11.65;;
51384;SDS011;37478;55.682;37.462;2023-07-09T03:37:29;21.75;;;11.27;;
51384;SDS011;37478;55.682;37.462;2023-07-09T03:39:54;24.48;;;11.68;;
51384;SDS011;37478;55.682;37.462;2023-07-09T03:42:20;18.52;;;11.10;;
51384;SDS011;37478;55.682;37.462;2023-07-09T03:44:45;17.52;;;11.57;;
51384;SDS011;37478;55.682;37.462;2023-07-09T03:47:10;22.80;;;11.23;;
51384;SDS011;37478;55.682;37.462;2023-07-09T03:49:35;20.08;;;11.85;;
51384;SDS011;37478;55.682;37.462;2023-07-09T03:52:01;23.77;;;10.98;;
51384;SDS011;37478;55.682;37.462;2023-07-09T03:54:26;21.23;;;11.07;;
51384;SDS011;37478;55.682;37.462;2023-07-09T03:56:52;19.38;;;10.38;;
51384;SDS011;37478;55.682;37.462;2023-07-09T03:59:17;21.30;;;11.85;;
51384;SDS011;37478;55.682;37.462;2023-07-09T04:01:43;23.10;;;12.02;;
51384;SDS011;37478;55.682;37.462;2023-07-09T04:04:13;22.25;;;11.07;;
51384;SDS011;37478;55.682;37.462;2023-07-09T04:06:39;24.48;;;12.20;;
51384;SDS011;37478;55.682;37.462;2023-07-09T04:09:04;20.90;;;11.52;;
51384;SDS011;37478;55.682;37.462;2023-07-09T04:11:30;19.45;;;11.30;;
51384;SDS011;37478;55.682;37.462;2023-07-09T04:13:55;26.60;;;12.88;;
51384;SDS011;37478;55.682;37.462;2023-07-09T04:16:20;17.95;;;11.93;;
51384;SDS011;37478;55.682;37.462;2023-07-09T04:18:46;18.45;;;10.40;;
51384;SDS011;37478;55.682;37.462;2023-07-09T04:21:11;24.65;;;11.68;;
51384;SDS011;37478;55.682;37.462;2023-07-09T04:23:36;18.20;;;11.25;;
51384;SDS011;37478;55.682;37.462;2023-07-09T04:26:01;21.30;;;11.48;;
51384;SDS011;37478;55.682;37.462;2023-07-09T04:28:28;17.35;;;10.30;;
51384;SDS011;37478;55.682;37.462;2023-07-09T04:30:53;17.73;;;10.32;;
51384;SDS011;37478;55.682;37.462;2023-07-09T04:33:19;25.38;;;10.65;;
51384;SDS011;37478;55.682;37.462;2023-07-09T04:35:45;17.70;;;9.82;;
51384;SDS011;37478;55.682;37.462;2023-07-09T04:38:11;17.75;;;9.45;;
51384;SDS011;37478;55.682;37.462;2023-07-09T04:40:36;15.18;;;6.82;;
51384;SDS011;37478;55.682;37.462;2023-07-09T04:43:01;10.88;;;7.35;;
51384;SDS011;37478;55.682;37.462;2023-07-09T04:45:26;12.52;;;8.30;;
51384;SDS011;37478;55.682;37.462;2023-07-09T04:47:52;11.63;;;6.95;;
51384;SDS011;37478;55.682;37.462;2023-07-09T04:50:17;10.13;;;7.13;;
51384;SDS011;37478;55.682;37.462;2023-07-09T04:52:43;10.10;;;6.75;;
51384;SDS011;37478;55.682;37.462;2023-07-09T04:55:08;13.02;;;6.93;;
51384;SDS011;37478;55.682;37.462;2023-07-09T04:57:34;13.93;;;7.10;;
51384;SDS011;37478;55.682;37.462;2023-07-09T04:59:59;11.02;;;6.63;;
51384;SDS011;37478;55.682;37.462;2023-07-09T05:02:24;11.40;;;7.35;;
51384;SDS011;37478;55.682;37.462;2023-07-09T05:04:50;17.75;;;6.93;;
51384;SDS011;37478;55.682;37.462;2023-07-09T05:07:15;9.55;;;6.28;;
51384;SDS011;37478;55.682;37.462;2023-07-09T05:09:40;12.95;;;6.80;;
51384;SDS011;37478;55.682;37.462;2023-07-09T05:12:06;11.75;;;6.20;;
51384;SDS011;37478;55.682;37.462;2023-07-09T05:14:32;12.80;;;6.20;;
51384;SDS011;37478;55.682;37.462;2023-07-09T05:16:57;8.32;;;5.47;;
51384;SDS011;37478;55.682;37.462;2023-07-09T05:19:22;14.82;;;5.88;;
51384;SDS011;37478;55.682;37.462;2023-07-09T05:21:47;8.20;;;5.25;;
51384;SDS011;37478;55.682;37.462;2023-07-09T05:24:13;8.00;;;5.00;;
51384;SDS011;37478;55.682;37.462;2023-07-09T05:26:38;8.93;;;4.68;;
51384;SDS011;37478;55.682;37.462;2023-07-09T05:29:03;8.48;;;4.88;;
51384;SDS011;37478;55.682;37.462;2023-07-09T05:31:30;7.90;;;4.50;;
51384;SDS011;37478;55.682;37.462;2023-07-09T05:33:56;6.43;;;4.65;;
51384;SDS011;37478;55.682;37.462;2023-07-09T05:36:21;5.68;;;4.22;;
51384;SDS011;37478;55.682;37.462;2023-07-09T05:38:46;5.55;;;4.22;;
51384;SDS011;37478;55.682;37.462;2023-07-09T05:41:12;7.03;;;4.25;;
51384;SDS011;37478;55.682;37.462;2023-07-09T05:43:37;5.13;;;4.00;;
51384;SDS011;37478;55.682;37.462;2023-07-09T05:46:04;8.48;;;5.30;;
51384;SDS011;37478;55.682;37.462;2023-07-09T05:48:29;7.05;;;4.18;;
51384;SDS011;37478;55.682;37.462;2023-07-09T05:50:55;7.32;;;4.07;;
51384;SDS011;37478;55.682;37.462;2023-07-09T05:53:20;7.88;;;4.65;;
51384;SDS011;37478;55.682;37.462;2023-07-09T05:55:46;8.02;;;4.15;;
51384;SDS011;37478;55.682;37.462;2023-07-09T05:58:11;5.95;;;4.28;;
51384;SDS011;37478;55.682;37.462;2023-07-09T06:00:36;5.60;;;4.00;;
51384;SDS011;37478;55.682;37.462;2023-07-09T06:03:02;7.70;;;4.75;;
51384;SDS011;37478;55.682;37.462;2023-07-09T06:05:35;10.43;;;4.85;;
51384;SDS011;37478;55.682;37.462;2023-07-09T06:08:00;5.40;;;3.67;;
51384;SDS011;37478;55.682;37.462;2023-07-09T06:10:25;9.45;;;4.30;;
51384;SDS011;37478;55.682;37.462;2023-07-09T06:12:51;10.82;;;5.35;;
51384;SDS011;37478;55.682;37.462;2023-07-09T06:15:16;6.70;;;4.40;;
51384;SDS011;37478;55.682;37.462;2023-07-09T06:17:41;12.93;;;5.25;;
51384;SDS011;37478;55.682;37.462;2023-07-09T06:20:07;12.70;;;4.28;;
51384;SDS011;37478;55.682;37.462;2023-07-09T06:22:33;19.25;;;4.47;;
51384;SDS011;37478;55.682;37.462;2023-07-09T06:24:58;6.82;;;3.92;;
51384;SDS011;37478;55.682;37.462;2023-07-09T06:27:23;8.50;;;3.72;;
51384;SDS011;37478;55.682;37.462;2023-07-09T06:29:49;11.48;;;4.85;;
51384;SDS011;37478;55.682;37.462;2023-07-09T06:32:14;6.53;;;4.10;;
51384;SDS011;37478;55.682;37.462;2023-07-09T06:34:39;7.97;;;4.35;;
51384;SDS011;37478;55.682;37.462;2023-07-09T06:37:05;6.45;;;4.65;;
51384;SDS011;37478;55.682;37.462;2023-07-09T06:39:31;8.10;;;4.68;;
51384;SDS011;37478;55.682;37.462;2023-07-09T06:41:56;9.18;;;5.07;;
51384;SDS011;37478;55.682;37.462;2023-07-09T06:44:21;10.27;;;4.85;;
51384;SDS011;37478;55.682;37.462;2023-07-09T06:46:46;6.65;;;4.38;;
51384;SDS011;37478;55.682;37.462;2023-07-09T06:49:13;7.93;;;4.53;;
51384;SDS011;37478;55.682;37.462;2023-07-09T06:51:38;9.60;;;4.40;;
51384;SDS011;37478;55.682;37.462;2023-07-09T06:54:03;6.80;;;4.35;;
51384;SDS011;37478;55.682;37.462;2023-07-09T06:56:30;6.13;;;4.20;;
51384;SDS011;37478;55.682;37.462;2023-07-09T06:58:55;7.80;;;4.00;;
51384;SDS011;37478;55.682;37.462;2023-07-09T07:01:21;7.88;;;4.13;;
51384;SDS011;37478;55.682;37.462;2023-07-09T07:03:47;5.82;;;4.53;;
51384;SDS011;37478;55.682;37.462;2023-07-09T07:06:12;8.85;;;3.95;;
51384;SDS011;37478;55.682;37.462;2023-07-09T07:08:37;5.10;;;3.67;;
51384;SDS011;37478;55.682;37.462;2023-07-09T07:11:04;7.43;;;3.38;;
51384;SDS011;37478;55.682;37.462;2023-07-09T07:13:31;8.20;;;3.80;;
51384;SDS011;37478;55.682;37.462;2023-07-09T07:15:57;7.20;;;3.47;;
51384;SDS011;37478;55.682;37.462;2023-07-09T07:18:22;4.63;;;3.13;;
51384;SDS011;37478;55.682;37.462;2023-07-09T07:20:48;6.13;;;3.05;;
51384;SDS011;37478;55.682;37.462;2023-07-09T07:23:14;5.80;;;2.60;;
51384;SDS011;37478;55.682;37.462;2023-07-09T07:25:39;4.53;;;2.65;;
51384;SDS011;37478;55.682;37.462;2023-07-09T07:28:04;7.65;;;3.55;;
51384;SDS011;37478;55.682;37.462;2023-07-09T07:30:29;7.25;;;3.28;;
51384;SDS011;37478;55.682;37.462;2023-07-09T07:32:55;5.93;;;3.13;;
51384;SDS011;37478;55.682;37.462;2023-07-09T07:35:20;4.28;;;2.72;;
51384;SDS011;37478;55.682;37.462;2023-07-09T07:37:46;7.03;;;3.03;;
51384;SDS011;37478;55.682;37.462;2023-07-09T07:40:11;4.50;;;2.95;;
51384;SDS011;37478;55.682;37.462;2023-07-09T07:42:36;4.72;;;3.70;;
51384;SDS011;37478;55.682;37.462;2023-07-09T07:45:02;8.85;;;3.08;;
51384;SDS011;37478;55.682;37.462;2023-07-09T07:47:29;3.88;;;2.78;;
51384;SDS011;37478;55.682;37.462;2023-07-09T07:49:54;5.47;;;2.75;;
51384;SDS011;37478;55.682;37.462;2023-07-09T07:52:19;3.90;;;2.53;;
51384;SDS011;37478;55.682;37.462;2023-07-09T07:54:45;5.93;;;2.85;;
51384;SDS011;37478;55.682;37.462;2023-07-09T07:57:10;3.28;;;2.42;;
51384;SDS011;37478;55.682;37.462;2023-07-09T07:59:36;5.78;;;2.83;;
51384;SDS011;37478;55.682;37.462;2023-07-09T08:02:02;5.60;;;2.65;;
51384;SDS011;37478;55.682;37.462;2023-07-09T08:04:28;4.47;;;3.10;;
51384;SDS011;37478;55.682;37.462;2023-07-09T08:06:53;7.45;;;3.60;;
51384;SDS011;37478;55.682;37.462;2023-07-09T08:09:19;5.65;;;3.25;;
51384;SDS011;37478;55.682;37.462;2023-07-09T08:11:44;4.47;;;3.17;;
51384;SDS011;37478;55.682;37.462;2023-07-09T08:14:10;5.22;;;3.03;;
51384;SDS011;37478;55.682;37.462;2023-07-09T08:16:35;7.03;;;3.30;;
51384;SDS011;37478;55.682;37.462;2023-07-09T08:19:01;8.05;;;2.70;;
51384;SDS011;37478;55.682;37.462;2023-07-09T08:21:26;5.18;;;3.33;;
51384;SDS011;37478;55.682;37.462;2023-07-09T08:23:52;5.30;;;3.10;;
51384;SDS011;37478;55.682;37.462;2023-07-09T08:26:17;4.03;;;2.90;;
51384;SDS011;37478;55.682;37.462;2023-07-09T08:28:42;5.80;;;2.80;;
51384;SDS011;37478;55.682;37.462;2023-07-09T08:31:08;4.93;;;3.13;;
51384;SDS011;37478;55.682;37.462;2023-07-09T08:33:34;6.00;;;3.42;;
51384;SDS011;37478;55.682;37.462;2023-07-09T08:35:59;5.20;;;3.22;;
51384;SDS011;37478;55.682;37.462;2023-07-09T08:38:25;8.25;;;2.78;;
51384;SDS011;37478;55.682;37.462;2023-07-09T08:40:53;4.90;;;3.20;;
51384;SDS011;37478;55.682;37.462;2023-07-09T08:43:26;7.15;;;3.40;;
51384;SDS011;37478;55.682;37.462;2023-07-09T08:45:57;5.10;;;3.55;;
51384;SDS011;37478;55.682;37.462;2023-07-09T08:48:30;4.63;;;2.97;;
51384;SDS011;37478;55.682;37.462;2023-07-09T08:50:58;8.63;;;3.25;;
51384;SDS011;37478;55.682;37.462;2023-07-09T08:55:55;5.10;;;3.33;;
51384;SDS011;37478;55.682;37.462;2023-07-09T08:58:27;4.30;;;3.17;;
51384;SDS011;37478;55.682;37.462;2023-07-09T09:01:03;8.30;;;3.53;;
51384;SDS011;37478;55.682;37.462;2023-07-09T09:03:34;4.15;;;3.17;;
51384;SDS011;37478;55.682;37.462;2023-07-09T09:06:02;5.60;;;3.47;;
51384;SDS011;37478;55.682;37.462;2023-07-09T09:10:56;6.10;;;3.87;;
51384;SDS011;37478;55.682;37.462;2023-07-09T09:13:23;5.18;;;3.60;;
51384;SDS011;37478;55.682;37.462;2023-07-09T09:15:50;6.28;;;3.50;;
51384;SDS011;37478;55.682;37.462;2023-07-09T09:18:22;6.35;;;3.80;;
51384;SDS011;37478;55.682;37.462;2023-07-09T09:20:51;8.50;;;3.50;;
51384;SDS011;37478;55.682;37.462;2023-07-09T09:23:18;5.97;;;3.53;;
51384;SDS011;37478;55.682;37.462;2023-07-09T09:25:45;6.30;;;3.53;;
51384;SDS011;37478;55.682;37.462;2023-07-09T09:28:14;8.13;;;3.55;;
51384;SDS011;37478;55.682;37.462;2023-07-09T09:30:39;4.85;;;3.03;;
51384;SDS011;37478;55.682;37.462;2023-07-09T09:33:08;4.55;;;3.08;;
51384;SDS011;37478;55.682;37.462;2023-07-09T09:35:35;8.52;;;4.28;;
51384;SDS011;37478;55.682;37.462;2023-07-09T09:38:01;8.73;;;5.38;;
51384;SDS011;37478;55.682;37.462;2023-07-09T09:40:28;5.43;;;3.13;;
51384;SDS011;37478;55.682;37.462;2023-07-09T09:42:55;4.75;;;2.72;;
51384;SDS011;37478;55.682;37.462;2023-07-09T09:45:24;4.10;;;3.25;;
51384;SDS011;37478;55.682;37.462;2023-07-09T09:47:49;5.38;;;3.08;;
51384;SDS011;37478;55.682;37.462;2023-07-09T09:50:19;4.70;;;3.17;;
51384;SDS011;37478;55.682;37.462;2023-07-09T09:52:46;5.32;;;3.40;;
51384;SDS011;37478;55.682;37.462;2023-07-09T09:55:15;4.88;;;3.30;;
51384;SDS011;37478;55.682;37.462;2023-07-09T09:57:46;5.10;;;3.08;;
51384;SDS011;37478;55.682;37.462;2023-07-09T10:00:12;6.70;;;4.00;;
51384;SDS011;37478;55.682;37.462;2023-07-09T10:02:40;6.60;;;3.70;;
51384;SDS011;37478;55.682;37.462;2023-07-09T10:05:15;6.15;;;4.05;;
51384;SDS011;37478;55.682;37.462;2023-07-09T10:08:00;6.07;;;3.42;;
51384;SDS011;37478;55.682;37.462;2023-07-09T10:10:28;6.22;;;3.72;;
51384;SDS011;37478;55.682;37.462;2023-07-09T10:13:05;7.10;;;3.35;;
51384;SDS011;37478;55.682;37.462;2023-07-09T10:15:38;4.75;;;3.47;;
51384;SDS011;37478;55.682;37.462;2023-07-09T10:21:10;5.05;;;3.30;;
51384;SDS011;37478;55.682;37.462;2023-07-09T10:28:56;6.47;;;2.97;;
51384;SDS011;37478;55.682;37.462;2023-07-09T10:31:30;4.07;;;3.08;;
51384;SDS011;37478;55.682;37.462;2023-07-09T10:41:14;10.95;;;3.42;;
51384;SDS011;37478;55.682;37.462;2023-07-09T10:43:46;7.07;;;3.13;;
51384;SDS011;37478;55.682;37.462;2023-07-09T10:46:17;4.80;;;2.83;;
51384;SDS011;37478;55.682;37.462;2023-07-09T10:48:44;5.68;;;3.15;;
51384;SDS011;37478;55.682;37.462;2023-07-09T10:51:15;5.97;;;3.28;;
51384;SDS011;37478;55.682;37.462;2023-07-09T10:53:45;6.40;;;3.10;;
51384;SDS011;37478;55.682;37.462;2023-07-09T10:56:12;3.85;;;2.95;;
51384;SDS011;37478;55.682;37.462;2023-07-09T10:58:42;4.07;;;2.75;;
51384;SDS011;37478;55.682;37.462;2023-07-09T11:01:11;8.15;;;3.42;;
51384;SDS011;37478;55.682;37.462;2023-07-09T11:03:42;6.18;;;3.45;;
51384;SDS011;37478;55.682;37.462;2023-07-09T11:06:53;9.50;;;4.03;;
51384;SDS011;37478;55.682;37.462;2023-07-09T11:08:54;8.40;;;3.47;;
51384;SDS011;37478;55.682;37.462;2023-07-09T11:13:50;4.65;;;3.28;;
51384;SDS011;37478;55.682;37.462;2023-07-09T11:16:32;8.60;;;3.60;;
51384;SDS011;37478;55.682;37.462;2023-07-09T11:19:01;6.10;;;3.17;;
51384;SDS011;37478;55.682;37.462;2023-07-09T11:21:26;4.22;;;3.17;;
51384;SDS011;37478;55.682;37.462;2023-07-09T11:23:56;4.63;;;2.70;;
51384;SDS011;37478;55.682;37.462;2023-07-09T11:28:51;4.13;;;3.05;;
51384;SDS011;37478;55.682;37.462;2023-07-09T11:31:21;7.90;;;2.78;;
51384;SDS011;37478;55.682;37.462;2023-07-09T11:33:48;7.55;;;3.50;;
51384;SDS011;37478;55.682;37.462;2023-07-09T11:36:14;7.93;;;3.47;;
51384;SDS011;37478;55.682;37.462;2023-07-09T11:38:48;5.82;;;3.83;;
51384;SDS011;37478;55.682;37.462;2023-07-09T11:44:31;4.85;;;3.03;;
51384;SDS011;37478;55.682;37.462;2023-07-09T11:49:14;5.60;;;3.20;;
51384;SDS011;37478;55.682;37.462;2023-07-09T11:51:42;4.63;;;2.88;;
51384;SDS011;37478;55.682;37.462;2023-07-09T11:54:11;6.70;;;3.30;;
51384;SDS011;37478;55.682;37.462;2023-07-09T11:56:36;4.45;;;2.75;;
51384;SDS011;37478;55.682;37.462;2023-07-09T11:59:01;7.03;;;3.28;;
51384;SDS011;37478;55.682;37.462;2023-07-09T12:01:38;4.13;;;3.15;;
51384;SDS011;37478;55.682;37.462;2023-07-09T12:04:05;5.70;;;2.97;;
51384;SDS011;37478;55.682;37.462;2023-07-09T12:06:31;4.00;;;2.75;;
51384;SDS011;37478;55.682;37.462;2023-07-09T12:08:57;4.10;;;2.50;;
51384;SDS011;37478;55.682;37.462;2023-07-09T12:11:23;4.90;;;2.60;;
51384;SDS011;37478;55.682;37.462;2023-07-09T12:13:49;4.20;;;2.45;;
51384;SDS011;37478;55.682;37.462;2023-07-09T12:16:25;3.88;;;2.38;;
51384;SDS011;37478;55.682;37.462;2023-07-09T12:18:51;3.88;;;2.75;;
51384;SDS011;37478;55.682;37.462;2023-07-09T12:21:17;4.90;;;3.25;;
51384;SDS011;37478;55.682;37.462;2023-07-09T12:23:42;9.57;;;3.03;;
51384;SDS011;37478;55.682;37.462;2023-07-09T12:26:16;8.48;;;3.33;;
51384;SDS011;37478;55.682;37.462;2023-07-09T12:28:42;7.30;;;3.83;;
51384;SDS011;37478;55.682;37.462;2023-07-09T12:31:14;6.13;;;3.47;;
51384;SDS011;37478;55.682;37.462;2023-07-09T12:33:46;4.28;;;2.70;;
51384;SDS011;37478;55.682;37.462;2023-07-09T12:36:13;4.10;;;3.20;;
51384;SDS011;37478;55.682;37.462;2023-07-09T12:38:43;5.95;;;3.47;;
51384;SDS011;37478;55.682;37.462;2023-07-09T12:41:54;7.97;;;3.25;;
51384;SDS011;37478;55.682;37.462;2023-07-09T12:43:55;7.47;;;3.35;;
51384;SDS011;37478;55.682;37.462;2023-07-09T12:46:23;8.15;;;3.13;;
51384;SDS011;37478;55.682;37.462;2023-07-09T12:48:49;6.25;;;3.28;;
51384;SDS011;37478;55.682;37.462;2023-07-09T12:51:22;4.35;;;3.00;;
51384;SDS011;37478;55.682;37.462;2023-07-09T12:53:49;6.97;;;2.80;;
51384;SDS011;37478;55.682;37.462;2023-07-09T13:01:16;10.87;;;3.17;;
51384;SDS011;37478;55.682;37.462;2023-07-09T13:03:41;7.93;;;3.90;;
51384;SDS011;37478;55.682;37.462;2023-07-09T13:06:23;6.78;;;2.80;;
51384;SDS011;37478;55.682;37.462;2023-07-09T13:08:54;5.93;;;3.45;;
51384;SDS011;37478;55.682;37.462;2023-07-09T13:11:19;8.98;;;3.30;;
51384;SDS011;37478;55.682;37.462;2023-07-09T13:13:58;5.15;;;3.03;;
51384;SDS011;37478;55.682;37.462;2023-07-09T13:16:24;4.25;;;2.47;;
51384;SDS011;37478;55.682;37.462;2023-07-09T13:18:50;4.32;;;2.67;;
51384;SDS011;37478;55.682;37.462;2023-07-09T13:21:16;5.03;;;2.93;;
51384;SDS011;37478;55.682;37.462;2023-07-09T13:23:41;4.90;;;2.80;;
51384;SDS011;37478;55.682;37.462;2023-07-09T13:26:08;5.72;;;2.90;;
51384;SDS011;37478;55.682;37.462;2023-07-09T13:28:33;4.10;;;3.08;;
51384;SDS011;37478;55.682;37.462;2023-07-09T13:33:30;5.88;;;2.60;;
51384;SDS011;37478;55.682;37.462;2023-07-09T13:35:55;3.92;;;2.90;;
51384;SDS011;37478;55.682;37.462;2023-07-09T13:38:21;4.57;;;3.38;;
51384;SDS011;37478;55.682;37.462;2023-07-09T13:40:49;7.53;;;3.38;;
51384;SDS011;37478;55.682;37.462;2023-07-09T13:43:36;4.18;;;3.35;;
51384;SDS011;37478;55.682;37.462;2023-07-09T13:46:00;10.20;;;3.97;;
51384;SDS011;37478;55.682;37.462;2023-07-09T13:48:28;7.38;;;3.88;;
51384;SDS011;37478;55.682;37.462;2023-07-09T13:50:54;6.10;;;3.55;;
51384;SDS011;37478;55.682;37.462;2023-07-09T13:53:24;6.43;;;4.90;;
51384;SDS011;37478;55.682;37.462;2023-07-09T13:55:50;5.43;;;3.13;;
51384;SDS011;37478;55.682;37.462;2023-07-09T13:58:16;5.07;;;3.30;;
51384;SDS011;37478;55.682;37.462;2023-07-09T14:00:44;9.00;;;4.00;;
51384;SDS011;37478;55.682;37.462;2023-07-09T14:03:23;4.47;;;2.97;;
51384;SDS011;37478;55.682;37.462;2023-07-09T14:05:49;5.63;;;3.20;;
51384;SDS011;37478;55.682;37.462;2023-07-09T14:08:15;9.05;;;3.78;;
51384;SDS011;37478;55.682;37.462;2023-07-09T14:10:42;5.45;;;2.92;;
51384;SDS011;37478;55.682;37.462;2023-07-09T14:13:09;5.65;;;3.17;;
51384;SDS011;37478;55.682;37.462;2023-07-09T14:15:37;8.98;;;3.83;;
51384;SDS011;37478;55.682;37.462;2023-07-09T14:18:04;9.07;;;3.67;;
51384;SDS011;37478;55.682;37.462;2023-07-09T14:20:30;4.32;;;3.15;;
51384;SDS011;37478;55.682;37.462;2023-07-09T14:22:55;6.13;;;3.45;;
51384;SDS011;37478;55.682;37.462;2023-07-09T14:25:22;10.80;;;3.70;;
51384;SDS011;37478;55.682;37.462;2023-07-09T14:27:48;6.82;;;3.50;;
51384;SDS011;37478;55.682;37.462;2023-07-09T14:30:14;6.80;;;3.30;;
51384;SDS011;37478;55.682;37.462;2023-07-09T14:32:40;6.93;;;3.60;;
51384;SDS011;37478;55.682;37.462;2023-07-09T14:37:45;5.38;;;3.88;;
51384;SDS011;37478;55.682;37.462;2023-07-09T14:40:10;5.65;;;3.25;;
51384;SDS011;37478;55.682;37.462;2023-07-09T14:42:39;5.97;;;3.17;;
51384;SDS011;37478;55.682;37.462;2023-07-09T14:45:05;4.00;;;3.20;;
51384;SDS011;37478;55.682;37.462;2023-07-09T14:47:31;4.68;;;2.80;;
51384;SDS011;37478;55.682;37.462;2023-07-09T14:49:56;10.43;;;3.83;;
51384;SDS011;37478;55.682;37.462;2023-07-09T14:52:22;6.38;;;3.75;;
51384;SDS011;37478;55.682;37.462;2023-07-09T14:54:47;8.98;;;3.97;;
51384;SDS011;37478;55.682;37.462;2023-07-09T14:57:25;14.15;;;3.75;;
51384;SDS011;37478;55.682;37.462;2023-07-09T14:59:51;5.65;;;3.42;;
51384;SDS011;37478;55.682;37.462;2023-07-09T15:02:20;5.45;;;3.30;;
51384;SDS011;37478;55.682;37.462;2023-07-09T15:04:46;9.88;;;3.35;;
51384;SDS011;37478;55.682;37.462;2023-07-09T15:07:12;9.02;;;3.42;;
51384;SDS011;37478;55.682;37.462;2023-07-09T15:09:37;6.45;;;3.55;;